Time;durP1;ratioP1;P1;durP2;ratioP2;P2;SDS_P1;SDS_P2;PMS_P1;PMS_P2;Temp;Humidity;BMP_temperature;BMP_pressure;BME280_temperature;BME280_humidity;BME280_pressure;Samples;Min_cycle;Max_cycle;Signal;HPM_P1;HPM_P2
2021/08/23 00:01:00;;;;;;;3.27;2.73;;;17.70;99.90;;;;;;5091310;28;20200;-61
2021/08/23 00:03:27;;;;;;;5.60;2.77;;;17.70;99.90;;;;;;5091401;28;20208;-61
2021/08/23 00:05:54;;;;;;;4.40;2.67;;;17.80;99.90;;;;;;5091133;28;20212;-61
2021/08/23 00:08:20;;;;;;;6.28;2.95;;;17.80;99.90;;;;;;5091053;28;20257;-63
2021/08/23 00:10:47;;;;;;;7.80;3.00;;;17.80;99.90;;;;;;5090948;28;20228;-62
2021/08/23 00:13:14;;;;;;;6.38;2.80;;;17.80;99.90;;;;;;5091460;28;20200;-62
2021/08/23 00:15:44;;;;;;;4.72;2.22;;;17.80;99.90;;;;;;5091064;28;20740;-61
2021/08/23 00:18:11;;;;;;;4.10;2.35;;;17.80;99.90;;;;;;5091136;28;20667;-61
2021/08/23 00:20:50;;;;;;;4.40;3.15;;;17.80;99.90;;;;;;5090740;28;20764;-61
2021/08/23 00:23:16;;;;;;;3.92;2.47;;;17.80;99.90;;;;;;5091422;28;20558;-61
2021/08/23 00:25:43;;;;;;;4.22;2.63;;;17.70;99.90;;;;;;5090135;28;20660;-61
2021/08/23 00:28:12;;;;;;;4.45;2.72;;;17.70;99.90;;;;;;5091355;28;20204;-61
2021/08/23 00:30:39;;;;;;;5.88;2.88;;;17.70;99.90;;;;;;5091576;28;20279;-60
2021/08/23 00:33:07;;;;;;;4.28;2.67;;;17.70;99.90;;;;;;5091205;28;20297;-61
2021/08/23 00:35:34;;;;;;;3.70;2.72;;;17.70;99.90;;;;;;5090876;28;20702;-61
2021/08/23 00:38:01;;;;;;;4.15;2.33;;;17.60;99.90;;;;;;5091470;28;20694;-61
2021/08/23 00:40:28;;;;;;;3.58;2.70;;;17.60;99.90;;;;;;5091562;28;20224;-60
2021/08/23 00:42:54;;;;;;;5.07;2.75;;;17.60;99.90;;;;;;5091261;28;20205;-60
2021/08/23 00:45:22;;;;;;;3.70;2.65;;;17.50;99.90;;;;;;5090660;28;20200;-61
2021/08/23 00:47:49;;;;;;;4.18;2.78;;;17.50;99.90;;;;;;5090055;28;20207;-61
2021/08/23 00:50:17;;;;;;;4.68;2.70;;;17.50;99.90;;;;;;5089994;28;20257;-60
2021/08/23 00:52:44;;;;;;;5.60;2.72;;;17.50;99.90;;;;;;5090044;28;20204;-60
2021/08/23 00:55:11;;;;;;;3.90;2.70;;;17.50;99.90;;;;;;5089798;28;20208;-60
2021/08/23 00:57:40;;;;;;;4.35;2.92;;;17.40;99.90;;;;;;5089805;28;20253;-61
2021/08/23 01:00:08;;;;;;;4.77;2.70;;;17.50;99.90;;;;;;5089517;28;20723;-60
2021/08/23 01:02:41;;;;;;;3.65;2.30;;;17.50;99.90;;;;;;5089721;28;20613;-60
2021/08/23 01:05:14;;;;;;;4.22;2.63;;;17.50;99.90;;;;;;5089756;28;20261;-61
2021/08/23 01:07:50;;;;;;;4.30;2.60;;;17.50;99.90;;;;;;5089734;28;20261;-61
2021/08/23 01:10:20;;;;;;;3.97;2.80;;;17.60;99.90;;;;;;5089801;28;20261;-62
2021/08/23 01:12:47;;;;;;;4.57;2.60;;;17.60;99.90;;;;;;5090059;28;20623;-60
2021/08/23 01:15:14;;;;;;;5.28;2.85;;;17.60;99.90;;;;;;5090145;28;20582;-61
2021/08/23 01:17:41;;;;;;;6.55;2.78;;;17.60;99.90;;;;;;5089450;28;20209;-62
2021/08/23 01:20:10;;;;;;;3.63;2.67;;;17.60;99.90;;;;;;5089859;28;20216;-61
2021/08/23 01:22:42;;;;;;;5.53;3.22;;;17.60;99.90;;;;;;5089585;28;20648;-61
2021/08/23 01:25:14;;;;;;;3.38;2.40;;;17.50;99.90;;;;;;5089616;28;20208;-62
2021/08/23 01:27:46;;;;;;;4.50;2.38;;;17.50;99.90;;;;;;5089502;28;20209;-61
2021/08/23 01:30:15;;;;;;;3.72;2.70;;;17.50;99.90;;;;;;5089410;28;20593;-61
2021/08/23 01:32:44;;;;;;;6.43;3.00;;;17.50;99.90;;;;;;5089758;28;20208;-61
2021/08/23 01:35:10;;;;;;;3.38;2.70;;;17.50;99.90;;;;;;5089450;28;20253;-61
2021/08/23 01:37:37;;;;;;;5.03;2.50;;;17.50;99.90;;;;;;5091313;28;20258;-62
2021/08/23 01:40:05;;;;;;;4.05;2.60;;;17.50;99.90;;;;;;5057140;28;1034205;-62
2021/08/23 01:42:33;;;;;;;5.10;2.65;;;17.60;99.90;;;;;;5094092;28;20217;-61
2021/08/23 01:44:59;;;;;;;3.53;2.50;;;17.60;99.90;;;;;;5094179;28;20269;-62
2021/08/23 01:47:27;;;;;;;7.57;2.80;;;17.60;99.90;;;;;;5093966;28;20210;-61
2021/08/23 01:49:55;;;;;;;4.43;2.75;;;17.60;99.90;;;;;;5093766;28;20224;-62
2021/08/23 01:52:21;;;;;;;4.90;2.70;;;17.50;99.90;;;;;;5093888;28;20208;-62
2021/08/23 01:54:48;;;;;;;6.70;2.63;;;17.60;99.90;;;;;;5094066;28;20208;-62
2021/08/23 01:57:15;;;;;;;6.13;2.35;;;17.70;99.90;;;;;;5093951;28;20205;-61
2021/08/23 01:59:42;;;;;;;4.63;2.50;;;17.70;99.90;;;;;;5093543;28;20243;-62
2021/08/23 02:02:09;;;;;;;4.28;2.70;;;17.70;99.90;;;;;;5093664;28;20240;-61
2021/08/23 02:04:35;;;;;;;4.68;2.42;;;17.60;99.90;;;;;;5093479;28;20303;-61
2021/08/23 02:07:04;;;;;;;5.28;2.60;;;17.60;99.90;;;;;;5093751;28;20233;-61
2021/08/23 02:09:30;;;;;;;3.80;2.15;;;17.60;99.90;;;;;;5093275;28;20236;-62
2021/08/23 02:11:57;;;;;;;4.47;2.38;;;17.60;99.90;;;;;;5093604;28;20211;-61
2021/08/23 02:14:24;;;;;;;4.28;2.40;;;17.60;99.90;;;;;;5093068;28;20622;-61
2021/08/23 02:16:54;;;;;;;3.42;2.33;;;17.70;99.90;;;;;;5093569;28;20219;-62
2021/08/23 02:19:21;;;;;;;4.40;2.42;;;17.70;99.90;;;;;;5093134;28;20232;-61
2021/08/23 02:21:50;;;;;;;3.10;2.60;;;17.70;99.90;;;;;;5093078;28;20694;-62
2021/08/23 02:24:18;;;;;;;3.55;2.70;;;17.70;99.90;;;;;;5093422;28;20568;-61
2021/08/23 02:26:45;;;;;;;3.72;2.60;;;17.70;99.90;;;;;;5093441;28;20204;-61
2021/08/23 02:29:12;;;;;;;3.53;2.50;;;17.70;99.90;;;;;;5093314;28;20223;-62
2021/08/23 02:31:39;;;;;;;5.50;2.58;;;17.70;99.90;;;;;;5092851;28;20599;-61
2021/08/23 02:34:06;;;;;;;4.20;2.83;;;17.70;99.90;;;;;;5092842;28;20208;-62
2021/08/23 02:36:34;;;;;;;3.97;2.50;;;17.80;99.90;;;;;;5092860;28;20204;-62
2021/08/23 02:39:00;;;;;;;3.53;2.25;;;17.80;99.90;;;;;;5092457;28;20239;-61
2021/08/23 02:41:28;;;;;;;3.60;2.50;;;17.80;99.90;;;;;;5092850;28;20277;-61
2021/08/23 02:43:55;;;;;;;3.58;2.35;;;17.80;99.90;;;;;;5092623;28;20668;-61
2021/08/23 02:46:22;;;;;;;4.35;2.55;;;17.80;99.90;;;;;;5092596;28;20785;-61
2021/08/23 02:48:49;;;;;;;4.70;2.80;;;17.90;99.90;;;;;;5091621;28;20251;-62
2021/08/23 02:51:15;;;;;;;3.15;2.50;;;17.80;99.90;;;;;;5092692;28;20310;-61
2021/08/23 02:53:42;;;;;;;4.75;2.33;;;17.80;99.90;;;;;;5093007;28;20208;-61
2021/08/23 02:56:09;;;;;;;5.47;2.75;;;17.80;99.90;;;;;;5092772;28;20208;-62
2021/08/23 02:58:37;;;;;;;4.93;2.42;;;17.90;99.90;;;;;;5092308;28;20223;-61
2021/08/23 03:01:03;;;;;;;6.68;2.60;;;17.90;99.90;;;;;;5092537;28;20204;-61
2021/08/23 03:03:30;;;;;;;4.05;2.90;;;18.00;99.90;;;;;;5092118;28;20261;-61
2021/08/23 03:05:57;;;;;;;4.57;3.63;;;18.00;99.90;;;;;;5092464;28;20208;-62
2021/08/23 03:08:24;;;;;;;8.57;4.00;;;18.00;99.90;;;;;;5092397;28;20255;-61
2021/08/23 03:10:54;;;;;;;4.10;2.65;;;18.00;99.90;;;;;;5092507;28;20275;-61
2021/08/23 03:13:21;;;;;;;5.55;2.50;;;18.00;99.90;;;;;;5092358;28;20262;-61
2021/08/23 03:15:49;;;;;;;4.35;2.42;;;18.10;99.90;;;;;;5092141;28;20208;-62
2021/08/23 03:18:16;;;;;;;5.03;3.17;;;18.10;99.90;;;;;;5092005;28;20208;-61
2021/08/23 03:20:42;;;;;;;3.53;2.83;;;18.00;99.90;;;;;;5092182;28;20251;-61
2021/08/23 03:23:09;;;;;;;5.15;3.33;;;18.00;99.90;;;;;;5092173;28;20212;-61
2021/08/23 03:25:36;;;;;;;4.38;3.25;;;18.10;99.90;;;;;;5092020;28;20219;-62
2021/08/23 03:28:02;;;;;;;4.10;2.60;;;18.10;99.90;;;;;;5091945;28;20207;-61
2021/08/23 03:30:29;;;;;;;3.67;2.38;;;18.10;99.90;;;;;;5092261;28;20228;-62
2021/08/23 03:32:57;;;;;;;4.65;2.40;;;18.20;99.90;;;;;;5091693;28;20208;-61
2021/08/23 03:35:24;;;;;;;4.05;2.65;;;18.20;99.90;;;;;;5091744;28;20204;-61
2021/08/23 03:37:50;;;;;;;3.80;2.28;;;18.20;99.90;;;;;;5091756;28;20204;-62
2021/08/23 03:40:17;;;;;;;3.72;2.78;;;18.20;99.90;;;;;;5128080;22;20467;-59
2021/08/23 03:42:44;;;;;;;3.40;2.60;;;18.20;99.90;;;;;;5111895;28;20203;-57
2021/08/23 03:45:10;;;;;;;4.57;2.92;;;18.30;99.90;;;;;;5111941;28;20208;-57
2021/08/23 03:47:37;;;;;;;5.68;2.97;;;18.20;99.90;;;;;;5112252;28;20627;-56
2021/08/23 03:50:06;;;;;;;7.85;4.70;;;18.20;99.90;;;;;;5111872;28;20227;-57
2021/08/23 03:52:33;;;;;;;8.32;4.70;;;18.20;99.90;;;;;;5111685;28;20666;-56
2021/08/23 03:54:59;;;;;;;15.55;10.38;;;18.20;99.90;;;;;;5111585;28;20701;-57
2021/08/23 03:57:26;;;;;;;4.47;2.85;;;18.20;99.90;;;;;;5111734;28;20211;-56
2021/08/23 03:59:53;;;;;;;5.00;2.60;;;18.30;99.90;;;;;;5111646;28;20600;-56
2021/08/23 04:02:19;;;;;;;7.70;4.07;;;18.20;99.90;;;;;;5111815;28;20204;-58
2021/08/23 04:04:46;;;;;;;7.10;4.43;;;18.20;99.90;;;;;;5111676;28;20207;-57
2021/08/23 04:07:14;;;;;;;6.93;2.30;;;18.20;99.90;;;;;;5111611;28;20283;-56
2021/08/23 04:09:41;;;;;;;5.30;2.95;;;18.30;99.90;;;;;;5111837;28;20230;-56
2021/08/23 04:12:08;;;;;;;5.63;2.80;;;18.30;99.90;;;;;;5111694;28;20227;-56
2021/08/23 04:14:34;;;;;;;4.57;2.95;;;18.30;99.90;;;;;;5111299;28;20204;-56
2021/08/23 04:17:01;;;;;;;7.40;3.50;;;18.30;99.90;;;;;;5111648;28;20211;-56
2021/08/23 04:19:29;;;;;;;6.32;3.00;;;18.30;99.90;;;;;;5111340;28;20219;-56
2021/08/23 04:21:56;;;;;;;6.70;3.33;;;18.30;99.90;;;;;;5111562;28;20554;-57
2021/08/23 04:24:24;;;;;;;4.75;2.80;;;18.20;99.90;;;;;;5111842;28;20214;-57
2021/08/23 04:26:51;;;;;;;3.55;2.60;;;18.20;99.90;;;;;;5111395;28;20675;-56
2021/08/23 04:29:18;;;;;;;7.25;4.70;;;18.20;99.90;;;;;;5111410;28;20223;-56
2021/08/23 04:31:45;;;;;;;4.68;3.08;;;18.20;99.90;;;;;;5111453;28;20246;-58
2021/08/23 04:34:12;;;;;;;11.68;8.05;;;18.20;99.90;;;;;;5111658;28;20219;-57
2021/08/23 04:36:39;;;;;;;8.25;5.00;;;18.20;99.90;;;;;;5111423;28;20204;-58
2021/08/23 04:39:07;;;;;;;11.05;4.53;;;18.20;99.90;;;;;;5111061;28;20231;-56
2021/08/23 04:41:38;;;;;;;4.15;3.00;;;18.30;99.90;;;;;;5111014;28;20203;-57
2021/08/23 04:44:05;;;;;;;16.15;10.45;;;18.30;99.90;;;;;;5111274;28;20261;-57
2021/08/23 04:46:32;;;;;;;8.32;6.15;;;18.30;99.90;;;;;;5111302;28;20214;-55
2021/08/23 04:48:59;;;;;;;7.38;5.22;;;18.30;99.90;;;;;;5111025;28;20223;-56
2021/08/23 04:51:26;;;;;;;5.57;4.13;;;18.30;99.90;;;;;;5111145;28;20231;-58
2021/08/23 04:53:52;;;;;;;6.65;3.22;;;18.30;99.90;;;;;;5111133;28;20204;-56
2021/08/23 04:56:19;;;;;;;4.45;3.00;;;18.30;99.90;;;;;;5111038;28;20211;-56
2021/08/23 04:58:47;;;;;;;6.57;3.35;;;18.20;99.90;;;;;;5111013;28;20203;-56
2021/08/23 05:01:14;;;;;;;5.32;3.55;;;18.20;99.90;;;;;;5110932;28;20663;-57
2021/08/23 05:03:41;;;;;;;5.05;2.97;;;18.10;99.90;;;;;;5110667;28;20686;-57
2021/08/23 05:06:08;;;;;;;3.67;2.65;;;18.20;99.90;;;;;;5110853;28;20796;-56
2021/08/23 05:08:34;;;;;;;3.65;3.25;;;18.20;99.90;;;;;;5110686;28;20199;-56
2021/08/23 05:11:01;;;;;;;5.90;3.10;;;18.20;99.90;;;;;;5110929;28;20232;-58
2021/08/23 05:13:28;;;;;;;4.22;3.00;;;18.10;99.90;;;;;;5114718;28;20235;-56
2021/08/23 05:15:57;;;;;;;4.53;2.80;;;18.20;99.90;;;;;;5114847;28;20832;-57
2021/08/23 05:18:24;;;;;;;4.57;3.45;;;18.30;99.90;;;;;;5114818;28;20227;-57
2021/08/23 05:20:51;;;;;;;6.57;3.53;;;18.30;99.90;;;;;;5114831;28;20216;-57
2021/08/23 05:23:17;;;;;;;4.35;3.00;;;18.40;99.90;;;;;;5114889;27;20206;-56
2021/08/23 05:25:44;;;;;;;7.72;3.60;;;18.40;99.90;;;;;;5114880;28;20203;-57
2021/08/23 05:28:11;;;;;;;5.10;2.78;;;18.40;99.90;;;;;;5114584;28;20679;-58
2021/08/23 05:30:38;;;;;;;5.15;3.10;;;18.40;99.90;;;;;;5114528;28;20219;-57
2021/08/23 05:33:06;;;;;;;7.43;4.47;;;18.40;99.90;;;;;;5114923;28;20203;-56
2021/08/23 05:35:32;;;;;;;6.88;3.78;;;18.40;99.90;;;;;;5114692;28;20208;-56
2021/08/23 05:37:59;;;;;;;4.03;3.17;;;18.40;99.90;;;;;;5114568;28;20690;-56
2021/08/23 05:40:29;;;;;;;3.78;2.70;;;18.40;99.90;;;;;;5114675;28;20677;-57
2021/08/23 05:42:56;;;;;;;5.75;3.20;;;18.50;99.90;;;;;;5115175;28;20210;-56
2021/08/23 05:45:23;;;;;;;5.10;4.57;;;18.50;99.90;;;;;;5114290;28;20679;-56
2021/08/23 05:47:50;;;;;;;6.22;3.15;;;18.50;99.90;;;;;;5114291;28;20280;-57
2021/08/23 05:50:18;;;;;;;5.70;3.50;;;18.60;99.90;;;;;;5114223;28;20703;-56
2021/08/23 05:52:44;;;;;;;6.22;3.17;;;18.70;99.90;;;;;;5114784;28;20227;-56
2021/08/23 05:55:11;;;;;;;5.72;3.00;;;18.90;99.90;;;;;;5114494;28;20200;-56
2021/08/23 05:57:38;;;;;;;5.10;3.00;;;19.10;99.90;;;;;;5114472;28;20210;-57
2021/08/23 06:00:06;;;;;;;7.35;2.85;;;19.30;99.90;;;;;;5114125;28;20224;-56
2021/08/23 06:02:33;;;;;;;6.07;2.70;;;19.50;99.90;;;;;;5114334;28;20207;-56
2021/08/23 06:05:00;;;;;;;3.97;2.95;;;19.60;99.90;;;;;;5113953;28;20206;-58
2021/08/23 06:07:28;;;;;;;3.47;2.60;;;19.70;99.90;;;;;;5114305;28;20203;-57
2021/08/23 06:09:55;;;;;;;5.78;2.55;;;19.70;99.90;;;;;;5113923;28;20227;-58
2021/08/23 06:12:22;;;;;;;5.60;2.75;;;19.70;99.90;;;;;;5113914;28;20230;-56
2021/08/23 06:14:48;;;;;;;7.57;2.58;;;19.80;99.90;;;;;;5113701;28;20204;-57
2021/08/23 06:17:15;;;;;;;5.13;2.63;;;20.00;99.90;;;;;;5113561;28;20693;-57
2021/08/23 06:19:42;;;;;;;5.05;2.63;;;20.30;99.90;;;;;;5113842;28;20231;-57
2021/08/23 06:22:08;;;;;;;4.88;2.50;;;20.60;99.90;;;;;;5113754;28;20214;-57
2021/08/23 06:24:36;;;;;;;5.80;2.33;;;21.00;99.90;;;;;;5112448;28;20544;-57
2021/08/23 06:27:03;;;;;;;6.18;2.60;;;21.20;99.90;;;;;;5113538;28;20210;-57
2021/08/23 06:29:30;;;;;;;4.55;2.63;;;21.70;99.90;;;;;;5113456;28;20727;-56
2021/08/23 06:31:57;;;;;;;4.28;2.45;;;22.10;99.90;;;;;;5113350;28;20246;-56
2021/08/23 06:34:23;;;;;;;8.77;2.70;;;22.30;99.90;;;;;;5113546;28;20204;-57
2021/08/23 06:36:50;;;;;;;6.40;2.15;;;22.50;99.90;;;;;;5113402;28;20206;-57
2021/08/23 06:39:17;;;;;;;3.88;2.63;;;22.60;99.90;;;;;;5113374;28;20325;-56
2021/08/23 06:41:45;;;;;;;4.35;2.22;;;22.70;99.90;;;;;;5113289;28;20210;-56
2021/08/23 06:44:12;;;;;;;4.65;2.35;;;22.70;99.90;;;;;;5112941;28;20585;-58
2021/08/23 06:46:40;;;;;;;5.28;2.30;;;22.50;99.90;;;;;;5113147;28;20204;-57
2021/08/23 06:49:06;;;;;;;4.25;2.22;;;22.30;99.90;;;;;;5113276;28;20506;-56
2021/08/23 06:51:33;;;;;;;6.28;4.40;;;22.00;99.90;;;;;;5113098;28;20224;-58
2021/08/23 06:54:00;;;;;;;4.00;2.25;;;21.90;99.90;;;;;;5113040;28;20276;-56
2021/08/23 06:56:27;;;;;;;5.40;2.53;;;21.80;99.90;;;;;;5113140;28;20218;-57
2021/08/23 06:58:56;;;;;;;5.18;2.47;;;21.70;99.90;;;;;;5112820;28;20239;-56
2021/08/23 07:01:26;;;;;;;10.50;2.60;;;21.50;99.90;;;;;;5112990;28;20203;-56
2021/08/23 07:03:53;;;;;;;4.60;2.35;;;21.50;99.90;;;;;;5113455;28;20214;-56
2021/08/23 07:06:19;;;;;;;7.72;2.58;;;21.50;99.90;;;;;;5113265;28;20200;-59
2021/08/23 07:08:46;;;;;;;6.00;2.60;;;21.30;99.90;;;;;;5112624;28;20230;-56
2021/08/23 07:11:13;;;;;;;4.40;2.47;;;21.20;99.90;;;;;;5112632;28;20207;-56
2021/08/23 07:13:41;;;;;;;5.05;2.30;;;21.20;99.90;;;;;;5112401;28;20211;-58
2021/08/23 07:16:09;;;;;;;4.55;2.47;;;21.20;99.90;;;;;;5113146;28;20208;-58
2021/08/23 07:18:35;;;;;;;4.22;2.53;;;21.20;99.90;;;;;;5112639;28;20207;-59
2021/08/23 07:21:03;;;;;;;4.13;2.42;;;21.20;99.90;;;;;;5112814;28;20227;-59
2021/08/23 07:23:29;;;;;;;4.63;2.40;;;21.30;99.90;;;;;;5112667;28;20214;-58
2021/08/23 07:25:57;;;;;;;7.40;2.38;;;21.30;99.90;;;;;;5112919;28;20207;-56
2021/08/23 07:28:23;;;;;;;6.32;2.78;;;21.40;99.90;;;;;;5112599;28;20207;-58
2021/08/23 07:30:50;;;;;;;3.90;2.42;;;21.60;99.90;;;;;;5113187;28;20223;-57
2021/08/23 07:33:18;;;;;;;3.78;2.42;;;21.80;99.90;;;;;;5112708;28;20231;-58
2021/08/23 07:35:45;;;;;;;5.38;2.33;;;21.90;99.90;;;;;;5112048;28;20264;-57
2021/08/23 07:38:11;;;;;;;3.88;2.20;;;22.10;99.90;;;;;;5112654;28;20547;-57
2021/08/23 07:40:38;;;;;;;5.18;2.30;;;22.20;99.90;;;;;;5112738;28;20299;-58
2021/08/23 07:43:05;;;;;;;5.88;2.47;;;22.30;99.90;;;;;;5112487;28;20670;-57
2021/08/23 07:45:32;;;;;;;4.18;2.90;;;22.30;99.90;;;;;;5112248;28;20214;-60
2021/08/23 07:47:58;;;;;;;6.07;2.75;;;22.50;99.90;;;;;;5112323;28;20253;-58
2021/08/23 07:50:26;;;;;;;3.55;2.22;;;22.60;99.90;;;;;;5112141;28;20230;-58
2021/08/23 07:52:53;;;;;;;6.70;2.45;;;22.70;99.90;;;;;;5111996;28;20231;-57
2021/08/23 07:55:20;;;;;;;4.50;3.00;;;22.50;99.90;;;;;;5112009;28;20381;-58
2021/08/23 07:57:48;;;;;;;8.23;2.80;;;22.50;99.90;;;;;;5112340;28;20208;-61
2021/08/23 08:00:16;;;;;;;3.72;2.70;;;22.40;99.90;;;;;;5114097;28;20230;-69
2021/08/23 08:02:43;;;;;;;3.17;2.47;;;22.50;99.90;;;;;;5112679;28;20203;-60
2021/08/23 08:05:12;;;;;;;5.32;2.45;;;22.60;99.90;;;;;;5112438;28;20270;-61
2021/08/23 08:07:40;;;;;;;5.30;2.78;;;22.70;99.90;;;;;;5112168;28;20671;-62
2021/08/23 08:10:08;;;;;;;5.35;2.70;;;22.80;99.90;;;;;;5112077;28;20223;-61
2021/08/23 08:12:35;;;;;;;5.57;2.45;;;22.70;99.90;;;;;;5112329;28;20224;-61
2021/08/23 08:15:02;;;;;;;4.22;2.40;;;22.50;99.90;;;;;;5112115;28;20210;-60
2021/08/23 08:17:29;;;;;;;3.72;2.35;;;22.20;99.90;;;;;;5112427;28;20203;-63
2021/08/23 08:19:55;;;;;;;3.88;2.42;;;22.00;99.90;;;;;;5112096;28;20737;-58
2021/08/23 08:22:22;;;;;;;3.45;2.40;;;22.00;99.90;;;;;;5111399;28;20207;-56
2021/08/23 08:24:50;;;;;;;4.88;2.60;;;22.20;99.90;;;;;;5111786;28;20207;-57
2021/08/23 08:27:17;;;;;;;6.72;2.65;;;22.40;99.90;;;;;;5111471;28;20257;-58
2021/08/23 08:29:44;;;;;;;3.13;2.00;;;22.90;99.90;;;;;;5111251;28;20246;-57
2021/08/23 08:32:10;;;;;;;2.55;2.00;;;23.50;99.90;;;;;;5111191;28;20223;-57
2021/08/23 08:34:37;;;;;;;3.50;2.15;;;23.90;99.90;;;;;;5111156;28;20221;-56
2021/08/23 08:37:04;;;;;;;3.45;1.85;;;24.10;99.90;;;;;;5111441;28;20207;-57
2021/08/23 08:39:31;;;;;;;4.00;2.20;;;24.00;99.90;;;;;;5111252;28;20231;-53
2021/08/23 08:41:59;;;;;;;5.05;2.22;;;23.90;99.90;;;;;;5110958;28;20694;-55
2021/08/23 08:44:27;;;;;;;3.90;2.33;;;23.80;99.90;;;;;;5111011;28;20214;-54
2021/08/23 08:46:55;;;;;;;4.57;2.50;;;23.70;99.90;;;;;;5110750;28;20569;-57
2021/08/23 08:49:23;;;;;;;3.75;2.40;;;23.50;99.90;;;;;;5110848;28;20231;-57
2021/08/23 08:51:50;;;;;;;4.35;2.53;;;23.40;99.90;;;;;;5111162;28;20215;-57
2021/08/23 08:54:17;;;;;;;3.10;2.50;;;23.30;99.90;;;;;;5111202;28;20207;-56
2021/08/23 08:56:44;;;;;;;7.53;2.50;;;23.10;99.90;;;;;;5111129;28;20670;-56
2021/08/23 08:59:13;;;;;;;5.55;2.78;;;22.90;99.90;;;;;;5111386;28;20230;-56
2021/08/23 09:01:41;;;;;;;4.32;3.03;;;22.70;99.90;;;;;;5111625;28;20214;-57
2021/08/23 09:04:07;;;;;;;5.30;2.85;;;22.40;99.90;;;;;;5110907;28;20215;-56
2021/08/23 09:06:39;;;;;;;5.65;2.60;;;22.00;99.90;;;;;;5111303;28;20203;-56
2021/08/23 09:09:11;;;;;;;4.07;2.60;;;22.00;99.90;;;;;;5110850;28;20277;-56
2021/08/23 09:11:39;;;;;;;5.07;2.70;;;22.20;99.90;;;;;;5111049;28;20203;-56
2021/08/23 09:14:08;;;;;;;6.63;2.50;;;22.50;99.90;;;;;;5111138;28;20655;-56
2021/08/23 09:16:38;;;;;;;3.65;2.40;;;22.80;99.90;;;;;;5110610;28;20290;-56
2021/08/23 09:19:05;;;;;;;4.32;2.38;;;23.30;99.90;;;;;;5110859;28;20843;-56
2021/08/23 09:21:34;;;;;;;3.28;2.05;;;23.80;99.90;;;;;;5110796;28;20675;-57
2021/08/23 09:24:01;;;;;;;5.97;2.15;;;24.30;99.90;;;;;;5110694;28;20195;-56
2021/08/23 09:26:31;;;;;;;4.45;2.42;;;24.50;99.90;;;;;;5110867;28;20212;-57
2021/08/23 09:29:00;;;;;;;3.85;2.20;;;24.70;99.90;;;;;;5110574;28;20238;-56
2021/08/23 09:31:28;;;;;;;4.30;2.17;;;24.80;99.90;;;;;;5110754;28;20203;-56
2021/08/23 09:33:59;;;;;;;3.38;2.40;;;24.70;99.90;;;;;;5110757;28;20231;-56
2021/08/23 09:36:26;;;;;;;5.32;2.40;;;24.80;99.90;;;;;;5110711;28;20702;-56
2021/08/23 09:38:57;;;;;;;3.55;1.90;;;24.80;99.90;;;;;;5110480;28;20218;-56
2021/08/23 09:41:24;;;;;;;2.35;1.95;;;24.70;99.90;;;;;;5111385;28;20211;-56
2021/08/23 09:43:59;;;;;;;4.65;2.30;;;24.70;99.90;;;;;;5110536;28;20211;-57
2021/08/23 09:46:26;;;;;;;5.93;2.33;;;25.00;99.90;;;;;;5110672;28;20621;-57
2021/08/23 09:48:54;;;;;;;5.03;2.30;;;25.60;99.90;;;;;;5110650;28;20211;-57
2021/08/23 09:51:30;;;;;;;3.40;2.10;;;25.80;99.90;;;;;;5110615;28;20208;-57
2021/08/23 09:54:07;;;;;;;3.95;2.30;;;25.70;99.90;;;;;;5110459;28;20223;-56
2021/08/23 09:56:35;;;;;;;4.30;2.33;;;25.40;99.90;;;;;;5110790;28;20219;-57
2021/08/23 09:59:04;;;;;;;3.35;2.30;;;24.80;99.90;;;;;;5113321;28;20489;-57
2021/08/23 10:01:32;;;;;;;3.03;2.10;;;24.50;99.90;;;;;;5114181;28;20215;-57
2021/08/23 10:04:02;;;;;;;2.42;2.10;;;24.50;99.90;;;;;;5114031;28;20202;-57
2021/08/23 10:06:32;;;;;;;3.85;2.13;;;24.50;99.90;;;;;;5114107;28;20207;-58
2021/08/23 10:09:00;;;;;;;4.75;2.05;;;25.10;99.90;;;;;;5113747;28;20609;-57
2021/08/23 10:11:26;;;;;;;3.72;2.15;;;25.20;99.90;;;;;;5114016;28;20226;-57
2021/08/23 10:13:53;;;;;;;4.53;2.08;;;25.40;99.90;;;;;;5113787;28;20223;-57
2021/08/23 10:16:21;;;;;;;4.10;2.20;;;25.60;99.90;;;;;;5113979;28;20210;-57
2021/08/23 10:18:49;;;;;;;4.38;2.15;;;25.90;99.90;;;;;;5113785;28;20676;-57
2021/08/23 10:21:16;;;;;;;3.78;2.30;;;25.90;99.90;;;;;;5094910;28;20436;-57
2021/08/23 10:23:44;;;;;;;2.50;2.20;;;25.90;99.90;;;;;;5093405;28;20514;-56
2021/08/23 10:26:11;;;;;;;3.83;1.88;;;26.10;99.90;;;;;;5093436;28;20333;-56
2021/08/23 10:28:39;;;;;;;4.88;2.47;;;26.30;99.90;;;;;;5093411;28;20212;-58
2021/08/23 10:31:08;;;;;;;2.35;1.80;;;26.60;99.90;;;;;;5093157;28;20208;-57
2021/08/23 10:33:37;;;;;;;2.65;1.95;;;27.00;99.90;;;;;;5092751;28;20252;-57
2021/08/23 10:36:07;;;;;;;2.20;1.80;;;27.20;99.90;;;;;;5093255;28;20287;-58
2021/08/23 10:38:34;;;;;;;4.53;2.20;;;27.30;99.90;;;;;;5092699;28;20218;-58
2021/08/23 10:41:09;;;;;;;2.75;1.92;;;27.20;99.90;;;;;;5093044;28;20323;-57
2021/08/23 10:43:47;;;;;;;2.58;1.98;;;27.10;99.90;;;;;;5092724;28;20207;-57
2021/08/23 10:46:25;;;;;;;3.13;1.70;;;27.10;99.90;;;;;;5093152;28;20375;-58
2021/08/23 10:48:53;;;;;;;3.80;1.90;;;26.80;99.90;;;;;;5092678;28;20200;-55
2021/08/23 10:51:28;;;;;;;3.10;2.10;;;26.60;99.90;;;;;;5092877;28;20208;-58
2021/08/23 10:53:55;;;;;;;3.08;2.15;;;26.20;99.90;;;;;;5092635;28;20231;-58
2021/08/23 10:56:24;;;;;;;3.72;1.92;;;25.70;99.90;;;;;;5092556;28;20218;-58
2021/08/23 10:58:51;;;;;;;2.75;2.10;;;25.50;99.90;;;;;;5092307;28;20356;-58
2021/08/23 11:01:21;;;;;;;3.78;1.90;;;25.40;99.90;;;;;;5092686;28;20204;-56
2021/08/23 11:04:02;;;;;;;3.17;2.05;;;25.20;99.90;;;;;;5092353;28;20704;-56
2021/08/23 11:06:29;;;;;;;4.53;2.20;;;25.10;99.90;;;;;;5092456;28;20215;-56
2021/08/23 11:09:06;;;;;;;4.13;2.00;;;25.00;99.90;;;;;;5091872;28;20208;-55
2021/08/23 11:11:36;;;;;;;4.30;2.15;;;24.50;99.90;;;;;;5092327;28;20231;-58
2021/08/23 11:14:03;;;;;;;4.82;2.10;;;24.40;99.90;;;;;;5092330;28;20224;-60
2021/08/23 11:16:32;;;;;;;2.90;2.20;;;24.40;99.90;;;;;;5092245;28;20200;-59
2021/08/23 11:19:06;;;;;;;3.38;2.20;;;24.70;99.90;;;;;;5092153;28;20204;-60
2021/08/23 11:21:32;;;;;;;3.35;2.13;;;24.70;99.90;;;;;;5092051;28;20208;-61
2021/08/23 11:24:06;;;;;;;3.28;1.92;;;24.60;99.90;;;;;;5091830;28;20689;-59
2021/08/23 11:26:32;;;;;;;2.55;1.90;;;23.90;99.90;;;;;;5092209;28;20211;-60
2021/08/23 11:29:10;;;;;;;3.75;2.35;;;23.20;99.90;;;;;;5091627;28;20232;-60
2021/08/23 11:31:36;;;;;;;2.55;1.95;;;22.60;99.90;;;;;;5091812;28;20237;-60
2021/08/23 11:34:05;;;;;;;4.47;2.22;;;22.20;99.90;;;;;;5091592;28;20315;-59
2021/08/23 11:36:34;;;;;;;3.38;2.30;;;22.00;99.90;;;;;;5092230;28;20295;-60
2021/08/23 11:39:10;;;;;;;2.97;2.10;;;22.10;99.90;;;;;;5091580;28;20723;-59
2021/08/23 11:41:37;;;;;;;2.83;2.20;;;22.30;99.90;;;;;;5092138;28;20690;-60
2021/08/23 11:44:05;;;;;;;3.28;2.10;;;22.20;99.90;;;;;;5091506;28;20212;-61
2021/08/23 11:46:33;;;;;;;4.18;2.00;;;22.10;99.90;;;;;;5091452;28;20702;-64
2021/08/23 11:49:00;;;;;;;4.95;2.50;;;22.30;99.90;;;;;;5091789;28;20231;-60
2021/08/23 11:51:29;;;;;;;2.55;2.25;;;22.70;99.90;;;;;;5091507;28;20579;-61
2021/08/23 11:53:56;;;;;;;2.88;2.10;;;23.10;99.90;;;;;;5091110;28;20273;-60
2021/08/23 11:56:23;;;;;;;2.92;2.10;;;23.60;99.90;;;;;;5090822;28;20227;-59
2021/08/23 11:58:50;;;;;;;4.47;2.17;;;23.80;99.90;;;;;;5090553;28;20208;-59
2021/08/23 12:01:17;;;;;;;5.82;4.68;;;23.80;99.90;;;;;;5091302;28;20729;-60
2021/08/23 12:03:47;;;;;;;3.22;2.13;;;24.00;99.90;;;;;;5090899;28;20207;-57
2021/08/23 12:06:16;;;;;;;2.80;2.08;;;24.20;99.90;;;;;;5091645;28;20639;-56
2021/08/23 12:08:43;;;;;;;3.10;2.13;;;24.10;99.90;;;;;;5091249;28;20246;-56
2021/08/23 12:11:12;;;;;;;2.28;2.08;;;24.20;99.90;;;;;;5091273;28;20204;-57
2021/08/23 12:13:40;;;;;;;3.78;2.30;;;24.20;99.90;;;;;;5091185;28;20237;-57
2021/08/23 12:16:09;;;;;;;2.55;2.10;;;24.40;99.90;;;;;;5091073;28;20215;-56
2021/08/23 12:18:38;;;;;;;3.53;2.95;;;24.70;99.90;;;;;;5091414;28;20261;-56
2021/08/23 12:21:12;;;;;;;3.35;2.20;;;24.80;99.90;;;;;;5090566;28;20200;-56
2021/08/23 12:23:47;;;;;;;3.63;2.53;;;24.80;99.90;;;;;;5090974;28;20634;-56
2021/08/23 12:26:15;;;;;;;3.20;2.80;;;24.50;99.90;;;;;;5091078;28;20211;-56
2021/08/23 12:28:49;;;;;;;2.42;2.05;;;24.10;99.90;;;;;;5091272;28;20208;-56
2021/08/23 12:31:16;;;;;;;5.07;2.20;;;23.80;99.90;;;;;;5090937;28;20208;-55
2021/08/23 12:33:43;;;;;;;2.65;2.00;;;23.50;99.90;;;;;;5091092;28;20588;-55
2021/08/23 12:36:11;;;;;;;2.25;2.00;;;23.20;99.90;;;;;;5090850;28;20672;-56
2021/08/23 12:38:38;;;;;;;3.05;2.03;;;23.00;99.90;;;;;;5090776;28;20250;-56
2021/08/23 12:41:06;;;;;;;3.00;2.08;;;23.10;99.90;;;;;;5090503;28;20606;-56
2021/08/23 12:43:36;;;;;;;2.58;1.63;;;23.10;99.90;;;;;;5090653;28;20563;-56
2021/08/23 12:46:03;;;;;;;3.28;1.30;;;23.10;99.90;;;;;;5091017;28;20704;-56
2021/08/23 12:48:30;;;;;;;3.00;1.80;;;23.00;99.90;;;;;;5091130;28;20246;-55